createdAt,value
2019-01-29T00:00:26.156Z,32.93
2019-01-29T00:02:54.547Z,31.87
2019-01-29T00:05:23.401Z,30.77
2019-01-29T00:07:51.943Z,28.90
2019-01-29T00:10:20.635Z,28.63
2019-01-29T00:12:49.151Z,28.27
2019-01-29T00:15:18.873Z,27.00
2019-01-29T00:17:47.394Z,27.00
2019-01-29T00:20:16.209Z,27.00
2019-01-29T00:22:45.035Z,26.70
2019-01-29T00:25:13.753Z,26.77
2019-01-29T00:27:42.364Z,26.17
2019-01-29T00:30:11.266Z,26.57
2019-01-29T00:32:39.603Z,28.77
2019-01-29T00:35:08.213Z,27.53
2019-01-29T00:37:36.989Z,27.53
2019-01-29T00:40:06.325Z,27.53
2019-01-29T00:42:34.705Z,26.70
2019-01-29T00:45:04.019Z,25.17
2019-01-29T00:47:32.585Z,26.07
2019-01-29T00:50:01.166Z,25.97
2019-01-29T00:52:29.695Z,26.60
2019-01-29T00:54:58.257Z,25.03
2019-01-29T00:57:28.216Z,25.37
2019-01-29T00:59:56.685Z,23.33
2019-01-29T01:02:25.492Z,22.43
2019-01-29T01:04:54.009Z,22.70
2019-01-29T01:07:22.567Z,21.80
2019-01-29T01:09:57.134Z,22.13
2019-01-29T01:12:21.857Z,21.30
2019-01-29T01:14:50.555Z,21.30
2019-01-29T01:17:18.769Z,21.37
2019-01-29T01:19:47.295Z,21.43
2019-01-29T01:22:15.746Z,20.23
2019-01-29T01:24:45.295Z,21.17
2019-01-29T01:27:13.993Z,20.93
2019-01-29T01:29:42.509Z,20.80
2019-01-29T01:32:10.947Z,20.23
2019-01-29T01:34:39.491Z,20.23
2019-01-29T01:37:08.062Z,20.50
2019-01-29T01:39:36.712Z,18.77
2019-01-29T01:42:05.375Z,20.27
2019-01-29T01:44:34.064Z,19.30
2019-01-29T01:47:02.600Z,19.77
2019-01-29T01:49:31.288Z,19.63
2019-01-29T01:51:59.817Z,18.03
2019-01-29T01:54:28.437Z,18.87
2019-01-29T01:56:57.036Z,18.67
2019-01-29T01:59:25.525Z,19.00
2019-01-29T02:01:53.893Z,18.73
2019-01-29T02:04:22.678Z,18.77
2019-01-29T02:06:51.281Z,19.43
2019-01-29T02:09:19.902Z,18.97
2019-01-29T02:11:48.471Z,19.07
2019-01-29T02:14:17.212Z,19.43
2019-01-29T02:16:45.850Z,18.27
2019-01-29T02:19:14.168Z,18.60
2019-01-29T02:21:42.942Z,19.20
2019-01-29T02:24:11.735Z,18.67
2019-01-29T02:26:40.121Z,18.57
2019-01-29T02:29:08.728Z,18.67
2019-01-29T02:31:37.361Z,18.20
2019-01-29T02:34:06.058Z,17.50
2019-01-29T02:36:34.699Z,17.80
2019-01-29T02:39:05.440Z,17.43
2019-01-29T02:41:35.214Z,17.43
2019-01-29T02:44:03.954Z,16.30
2019-01-29T02:46:32.449Z,16.40
2019-01-29T02:49:00.644Z,15.73
2019-01-29T02:51:29.051Z,15.43
2019-01-29T02:53:57.702Z,14.93
2019-01-29T02:56:26.275Z,15.13
2019-01-29T02:58:54.904Z,15.37
2019-01-29T03:01:23.626Z,15.67
2019-01-29T03:03:53.334Z,13.93
2019-01-29T03:06:22.111Z,13.87
2019-01-29T03:08:50.745Z,14.03
2019-01-29T03:11:19.516Z,15.10
2019-01-29T03:13:48.166Z,14.80
2019-01-29T03:16:17.561Z,15.07
2019-01-29T03:18:46.364Z,14.17
2019-01-29T03:21:14.942Z,14.40
2019-01-29T03:23:43.527Z,15.33
2019-01-29T03:26:13.020Z,15.10
2019-01-29T03:28:41.595Z,14.93
2019-01-29T03:31:10.351Z,13.73
2019-01-29T03:33:38.728Z,14.40
2019-01-29T03:36:07.575Z,14.23
2019-01-29T03:38:36.197Z,13.23
2019-01-29T03:41:04.943Z,13.63
2019-01-29T03:43:33.469Z,13.97
2019-01-29T03:46:02.122Z,13.70
2019-01-29T03:48:30.758Z,14.17
2019-01-29T03:50:59.163Z,14.07
2019-01-29T03:53:37.575Z,13.97
2019-01-29T03:55:57.596Z,13.33
2019-01-29T03:58:25.758Z,12.97
2019-01-29T04:00:54.360Z,13.17
2019-01-29T04:03:22.718Z,12.93
2019-01-29T04:05:51.328Z,12.67
2019-01-29T04:08:19.984Z,12.53
2019-01-29T04:10:48.583Z,12.23
2019-01-29T04:13:17.239Z,12.50
2019-01-29T04:15:45.665Z,11.70
2019-01-29T04:18:14.280Z,11.20
2019-01-29T04:20:42.729Z,11.80
2019-01-29T04:23:11.396Z,11.30
2019-01-29T04:25:40.023Z,12.40
2019-01-29T04:28:08.662Z,12.73
2019-01-29T04:30:37.101Z,12.93
2019-01-29T04:33:05.576Z,12.40
2019-01-29T04:35:34.229Z,10.97
2019-01-29T04:38:02.811Z,10.87
2019-01-29T04:40:31.431Z,11.80
2019-01-29T04:43:00.005Z,10.73
2019-01-29T04:45:28.776Z,10.87
2019-01-29T04:47:57.400Z,10.60
2019-01-29T04:50:25.724Z,11.17
2019-01-29T04:52:54.313Z,10.90
2019-01-29T04:55:23.015Z,11.50
2019-01-29T04:57:52.626Z,11.17
2019-01-29T05:00:24.651Z,11.20
2019-01-29T05:02:53.301Z,10.90
2019-01-29T05:05:22.070Z,11.57
2019-01-29T05:07:50.526Z,10.97
2019-01-29T05:10:19.692Z,10.53
2019-01-29T05:12:54.121Z,11.47
2019-01-29T05:15:22.643Z,11.03
2019-01-29T05:17:51.318Z,10.90
2019-01-29T05:20:21.576Z,10.73
2019-01-29T05:22:50.344Z,10.30
2019-01-29T05:25:19.732Z,10.60
2019-01-29T05:27:48.573Z,11.87
2019-01-29T05:30:20.714Z,11.23
2019-01-29T05:32:49.778Z,11.63
2019-01-29T05:35:19.063Z,10.80
2019-01-29T05:37:49.455Z,14.70
2019-01-29T05:40:19.676Z,12.03
2019-01-29T05:42:48.748Z,10.57
2019-01-29T05:45:18.651Z,10.90
2019-01-29T05:47:47.459Z,10.57
2019-01-29T05:50:15.906Z,10.50
2019-01-29T05:52:44.549Z,9.90
2019-01-29T05:55:13.873Z,10.63
2019-01-29T05:57:42.576Z,10.30
2019-01-29T06:00:15.471Z,11.40
2019-01-29T06:02:43.820Z,11.83
2019-01-29T06:05:13.499Z,12.37
2019-01-29T06:07:42.161Z,11.17
2019-01-29T06:10:10.847Z,11.10
2019-01-29T06:12:39.578Z,11.23
2019-01-29T06:15:11.497Z,12.27
2019-01-29T06:17:40.102Z,12.27
2019-01-29T06:20:12.483Z,12.53
2019-01-29T06:22:40.808Z,12.97
2019-01-29T06:25:09.709Z,12.80
2019-01-29T06:27:38.053Z,13.10
2019-01-29T06:30:09.606Z,13.38
2019-01-29T06:32:38.295Z,13.83
2019-01-29T06:35:09.365Z,13.80
2019-01-29T06:37:37.990Z,13.60
2019-01-29T06:40:08.040Z,13.03
2019-01-29T06:42:36.545Z,15.93
2019-01-29T06:45:07.425Z,20.67
2019-01-29T06:47:35.776Z,25.50
2019-01-29T06:50:06.144Z,23.67
2019-01-29T06:52:34.475Z,28.77
2019-01-29T06:55:03.158Z,22.37
2019-01-29T06:57:31.761Z,16.87
2019-01-29T07:00:00.270Z,17.40
2019-01-29T07:02:28.987Z,16.83
2019-01-29T07:04:57.838Z,19.23
2019-01-29T07:07:26.470Z,21.07
2019-01-29T07:09:55.355Z,21.90
2019-01-29T07:12:23.740Z,20.23
2019-01-29T07:14:52.265Z,21.33
2019-01-29T07:17:41.798Z,20.97
2019-01-29T07:20:11.498Z,21.60
2019-01-29T07:22:39.767Z,19.80
2019-01-29T07:25:09.511Z,20.27
2019-01-29T07:27:38.211Z,19.80
2019-01-29T07:30:08.796Z,18.37
2019-01-29T07:32:38.454Z,18.80
2019-01-29T07:35:07.877Z,19.00
2019-01-29T07:37:36.428Z,22.90
2019-01-29T07:40:05.876Z,22.87
2019-01-29T07:42:34.576Z,23.63
2019-01-29T07:45:04.190Z,23.87
2019-01-29T07:47:34.073Z,21.33
2019-01-29T07:50:02.716Z,21.57
2019-01-29T07:52:31.029Z,23.83
2019-01-29T07:54:59.476Z,26.73
2019-01-29T07:57:27.704Z,46.53
2019-01-29T07:59:56.175Z,33.57
2019-01-29T08:02:24.863Z,61.33
2019-01-29T08:04:53.423Z,37.87
2019-01-29T08:07:22.017Z,24.73
2019-01-29T08:09:50.432Z,21.13
2019-01-29T08:12:18.845Z,18.27
2019-01-29T08:14:47.520Z,17.83
2019-01-29T08:17:16.097Z,18.93
2019-01-29T08:19:44.653Z,20.33
2019-01-29T08:22:13.112Z,25.70
2019-01-29T08:24:41.719Z,24.27
2019-01-29T08:27:10.241Z,21.80
2019-01-29T08:29:38.719Z,22.20
2019-01-29T08:32:08.418Z,32.98
2019-01-29T08:34:36.975Z,21.93
2019-01-29T08:37:05.516Z,18.87
2019-01-29T08:39:33.905Z,18.27
2019-01-29T08:42:02.322Z,17.13
2019-01-29T08:44:31.005Z,15.10
2019-01-29T08:46:59.756Z,13.53
2019-01-29T08:49:28.495Z,23.47
2019-01-29T08:51:57.026Z,19.77
2019-01-29T08:54:25.406Z,12.23
2019-01-29T08:56:54.008Z,12.93
2019-01-29T08:59:22.583Z,11.85
2019-01-29T09:01:51.249Z,11.43
2019-01-29T09:04:20.053Z,11.03
2019-01-29T09:06:48.682Z,10.87
2019-01-29T09:09:17.469Z,11.60
2019-01-29T09:11:46.038Z,12.10
2019-01-29T09:14:14.691Z,9.57
2019-01-29T09:16:43.146Z,7.37
2019-01-29T09:19:11.797Z,7.73
2019-01-29T09:21:40.394Z,7.73
2019-01-29T09:24:09.025Z,7.60
2019-01-29T09:26:37.547Z,5.50
2019-01-29T09:29:07.194Z,7.47
2019-01-29T09:31:36.011Z,6.63
2019-01-29T09:34:04.817Z,5.00
2019-01-29T09:36:34.073Z,3.73
2019-01-29T09:39:04.905Z,3.90
2019-01-29T09:41:33.775Z,5.20
2019-01-29T09:44:02.770Z,3.73
2019-01-29T09:46:31.582Z,3.20
2019-01-29T09:49:00.194Z,3.47
2019-01-29T09:51:28.822Z,3.67
2019-01-29T09:53:57.752Z,4.00
2019-01-29T09:56:27.408Z,3.37
2019-01-29T09:58:56.189Z,3.40
2019-01-29T10:01:24.881Z,3.60
2019-01-29T10:03:53.446Z,3.60
2019-01-29T10:06:22.095Z,4.23
2019-01-29T10:08:50.528Z,6.73
2019-01-29T10:11:19.297Z,3.97
2019-01-29T10:13:48.006Z,4.20
2019-01-29T10:16:16.776Z,4.67
2019-01-29T10:18:45.156Z,3.58
2019-01-29T10:21:13.708Z,3.93
2019-01-29T10:23:42.589Z,4.00
2019-01-29T10:26:11.094Z,3.80
2019-01-29T10:28:39.952Z,3.80
2019-01-29T10:31:08.633Z,3.63
2019-01-29T10:33:37.279Z,4.50
2019-01-29T10:36:06.105Z,3.50
2019-01-29T10:38:34.746Z,4.07
2019-01-29T10:41:03.660Z,4.40
2019-01-29T10:43:32.449Z,4.13
2019-01-29T10:46:00.845Z,4.47
2019-01-29T10:48:29.683Z,3.83
2019-01-29T10:50:58.538Z,3.73
2019-01-29T10:53:27.227Z,4.83
2019-01-29T10:55:55.660Z,4.37
2019-01-29T10:58:24.421Z,4.73
2019-01-29T11:00:53.137Z,4.93
2019-01-29T11:03:21.921Z,4.90
2019-01-29T11:05:50.582Z,6.50
2019-01-29T11:08:19.165Z,5.03
2019-01-29T11:10:47.958Z,4.20
2019-01-29T11:13:16.615Z,4.30
2019-01-29T11:15:45.391Z,5.90
2019-01-29T11:18:15.459Z,5.73
2019-01-29T11:20:44.216Z,4.97
2019-01-29T11:23:13.034Z,4.83
2019-01-29T11:25:42.038Z,3.80
2019-01-29T11:28:10.802Z,3.73
2019-01-29T11:30:41.291Z,3.90
2019-01-29T11:33:10.214Z,3.50
2019-01-29T11:35:40.550Z,3.40
2019-01-29T11:38:09.400Z,3.27
2019-01-29T11:40:38.143Z,3.77
2019-01-29T11:43:07.266Z,4.00
2019-01-29T11:45:42.016Z,4.20
2019-01-29T11:48:10.450Z,4.20
2019-01-29T11:50:39.278Z,4.00
2019-01-29T11:53:08.101Z,3.37
2019-01-29T11:55:36.780Z,3.87
2019-01-29T11:58:06.135Z,3.63
2019-01-29T12:01:00.632Z,3.73
2019-01-29T12:03:29.239Z,3.90
2019-01-29T12:05:58.855Z,3.90
2019-01-29T12:08:27.534Z,3.60
2019-01-29T12:10:56.275Z,4.03
2019-01-29T12:13:24.922Z,4.27
2019-01-29T12:15:53.365Z,3.37
2019-01-29T12:18:23.054Z,3.87
2019-01-29T12:20:51.592Z,3.20
2019-01-29T12:23:21.485Z,3.70
2019-01-29T12:25:50.117Z,3.70
2019-01-29T12:28:18.806Z,3.63
2019-01-29T12:30:48.416Z,3.40
2019-01-29T12:33:18.141Z,3.47
2019-01-29T12:35:46.722Z,3.50
2019-01-29T12:38:15.355Z,3.70
2019-01-29T12:40:44.119Z,4.00
2019-01-29T12:43:12.713Z,3.53
2019-01-29T12:45:41.556Z,4.00
2019-01-29T12:48:10.306Z,3.77
2019-01-29T12:50:41.236Z,3.60
2019-01-29T12:53:12.244Z,4.10
2019-01-29T12:55:40.942Z,3.93
2019-01-29T12:58:09.487Z,3.57
2019-01-29T13:00:57.643Z,4.23
2019-01-29T13:03:26.368Z,4.10
2019-01-29T13:05:54.961Z,4.20
2019-01-29T13:08:23.671Z,4.23
2019-01-29T13:10:52.356Z,4.20
2019-01-29T13:13:21.155Z,4.53
2019-01-29T13:15:49.894Z,5.30
2019-01-29T13:18:20.272Z,4.97
2019-01-29T13:20:50.049Z,5.83
2019-01-29T13:23:20.516Z,5.50
2019-01-29T13:25:49.424Z,5.47
2019-01-29T13:28:18.137Z,4.50
2019-01-29T13:30:46.752Z,4.80
2019-01-29T13:33:15.504Z,7.35
2019-01-29T13:35:44.440Z,4.60
2019-01-29T13:38:13.178Z,4.57
2019-01-29T13:40:41.825Z,4.70
2019-01-29T13:43:10.696Z,4.73
2019-01-29T13:45:39.572Z,4.40
2019-01-29T13:48:08.270Z,4.97
2019-01-29T13:50:41.253Z,4.33
2019-01-29T13:53:09.954Z,4.50
2019-01-29T13:55:38.796Z,4.80
2019-01-29T13:58:08.371Z,5.07
2019-01-29T14:00:37.750Z,4.70
2019-01-29T14:03:07.379Z,4.50
2019-01-29T14:05:36.046Z,4.37
2019-01-29T14:08:06.100Z,4.90
2019-01-29T14:10:34.854Z,4.77
2019-01-29T14:13:03.637Z,4.97
2019-01-29T14:15:37.670Z,5.07
2019-01-29T14:18:06.379Z,5.00
2019-01-29T14:20:35.113Z,4.60
2019-01-29T14:23:05.357Z,4.87
2019-01-29T14:25:34.133Z,4.83
2019-01-29T14:28:02.681Z,5.10
2019-01-29T14:30:31.470Z,5.10
2019-01-29T14:33:00.117Z,6.30
2019-01-29T14:35:28.856Z,5.00
2019-01-29T14:38:39.765Z,4.67
2019-01-29T14:41:08.379Z,5.20
2019-01-29T14:43:37.707Z,5.33
2019-01-29T14:46:06.599Z,5.10
2019-01-29T14:48:35.319Z,5.40
2019-01-29T14:51:04.308Z,6.10
2019-01-29T14:53:33.167Z,5.40
2019-01-29T14:56:01.930Z,5.83
2019-01-29T14:58:30.805Z,7.27
2019-01-29T15:00:59.689Z,6.67
2019-01-29T15:03:28.313Z,6.07
2019-01-29T15:05:56.973Z,6.67
2019-01-29T15:08:27.166Z,6.00
2019-01-29T15:10:55.725Z,6.20
2019-01-29T15:13:25.314Z,6.80
2019-01-29T15:15:57.657Z,6.67
2019-01-29T15:18:32.625Z,6.30
2019-01-29T15:21:01.371Z,6.23
2019-01-29T15:23:31.748Z,6.50
2019-01-29T15:26:00.405Z,7.03
2019-01-29T15:28:30.213Z,6.80
2019-01-29T15:30:58.975Z,7.17
2019-01-29T15:33:28.126Z,8.33
2019-01-29T15:35:58.053Z,7.90
2019-01-29T15:38:26.650Z,7.90
2019-01-29T15:40:55.533Z,9.50
2019-01-29T15:43:24.842Z,8.57
2019-01-29T15:45:54.660Z,9.07
2019-01-29T15:48:23.583Z,10.40
2019-01-29T15:50:52.517Z,10.93
2019-01-29T15:53:21.156Z,12.53
2019-01-29T15:55:51.262Z,12.57
2019-01-29T15:58:21.227Z,12.20
2019-01-29T16:00:49.938Z,13.83
2019-01-29T16:03:20.763Z,14.57
2019-01-29T16:05:49.609Z,14.83
2019-01-29T16:08:18.374Z,14.77
2019-01-29T16:10:47.484Z,16.83
2019-01-29T16:13:16.122Z,16.93
2019-01-29T16:15:44.827Z,17.93
2019-01-29T16:18:13.819Z,23.33
2019-01-29T16:20:45.740Z,25.47
2019-01-29T16:23:14.455Z,23.90
2019-01-29T16:25:43.130Z,24.80
2019-01-29T16:28:11.658Z,28.83
2019-01-29T16:30:40.447Z,52.50
2019-01-29T16:33:09.138Z,55.33
2019-01-29T16:35:39.390Z,42.90
2019-01-29T16:38:09.024Z,31.00
2019-01-29T16:40:38.025Z,28.00
2019-01-29T16:43:06.781Z,30.17
2019-01-29T16:45:35.601Z,42.37
2019-01-29T16:48:05.281Z,44.03
2019-01-29T16:50:33.894Z,46.00
2019-01-29T16:53:02.532Z,36.03
2019-01-29T16:55:31.816Z,31.20
2019-01-29T16:58:00.568Z,27.53
2019-01-29T17:00:30.325Z,33.57
2019-01-29T17:02:59.113Z,35.53
2019-01-29T17:05:27.878Z,39.40
2019-01-29T17:07:56.762Z,46.60
2019-01-29T17:10:25.593Z,69.87
2019-01-29T17:12:53.850Z,53.17
2019-01-29T17:15:24.925Z,47.87
2019-01-29T17:17:53.600Z,47.13
2019-01-29T17:20:24.793Z,60.07
2019-01-29T17:22:53.807Z,60.70
2019-01-29T17:25:22.367Z,59.83
2019-01-29T17:27:50.900Z,56.50
2019-01-29T17:30:28.714Z,40.20
2019-01-29T17:32:57.168Z,39.50
2019-01-29T17:35:25.954Z,83.17
2019-01-29T17:37:54.843Z,57.27
2019-01-29T17:40:23.440Z,31.90
2019-01-29T17:42:52.343Z,24.27
2019-01-29T17:45:26.519Z,23.20
2019-01-29T17:47:55.173Z,22.43
2019-01-29T17:50:26.195Z,26.43
2019-01-29T17:52:54.900Z,24.23
2019-01-29T17:55:23.681Z,27.47
2019-01-29T17:57:52.348Z,25.50
2019-01-29T18:00:24.642Z,22.43
2019-01-29T18:02:53.419Z,21.30
2019-01-29T18:05:22.051Z,26.67
2019-01-29T18:07:51.699Z,31.00
2019-01-29T18:10:20.509Z,35.30
2019-01-29T18:12:49.182Z,40.80
2019-01-29T18:15:19.985Z,59.37
2019-01-29T18:17:48.341Z,53.70
2019-01-29T18:20:17.223Z,53.30
2019-01-29T18:22:45.870Z,53.13
2019-01-29T18:25:19.995Z,47.30
2019-01-29T18:27:48.633Z,45.07
2019-01-29T18:30:19.747Z,45.63
2019-01-29T18:32:48.141Z,41.37
2019-01-29T18:35:16.835Z,38.40
2019-01-29T18:37:46.406Z,46.63
2019-01-29T18:40:41.826Z,45.37
2019-01-29T18:43:10.612Z,42.13
2019-01-29T18:45:39.180Z,41.13
2019-01-29T18:48:07.933Z,37.17
2019-01-29T18:50:36.594Z,34.43
2019-01-29T18:53:05.335Z,33.27
2019-01-29T18:55:33.858Z,32.57
2019-01-29T18:58:11.473Z,31.33
2019-01-29T19:00:32.890Z,29.20
2019-01-29T19:03:01.561Z,29.60
2019-01-29T19:05:30.200Z,31.67
2019-01-29T19:07:58.914Z,35.30
2019-01-29T19:10:29.631Z,35.90
2019-01-29T19:12:58.186Z,43.10
2019-01-29T19:15:26.526Z,44.07
2019-01-29T19:17:55.041Z,44.97
2019-01-29T19:20:23.833Z,43.17
2019-01-29T19:22:52.471Z,42.57
2019-01-29T19:25:21.356Z,39.73
2019-01-29T19:27:50.253Z,49.63
2019-01-29T19:30:27.343Z,48.30
2019-01-29T19:32:56.121Z,51.50
2019-01-29T19:35:24.794Z,46.77
2019-01-29T19:37:55.570Z,50.73
2019-01-29T19:40:24.220Z,51.13
2019-01-29T19:42:53.232Z,57.07
2019-01-29T19:45:22.876Z,48.80
2019-01-29T19:47:51.176Z,67.73
2019-01-29T19:50:21.903Z,46.83
2019-01-29T19:52:51.678Z,43.03
2019-01-29T19:55:21.764Z,61.27
2019-01-29T19:57:50.562Z,42.73
2019-01-29T20:00:20.436Z,42.33
2019-01-29T20:02:50.242Z,48.00
2019-01-29T20:05:18.988Z,48.27
2019-01-29T20:07:47.543Z,46.50
2019-01-29T20:10:16.205Z,43.67
2019-01-29T20:12:44.889Z,42.07
2019-01-29T20:15:15.003Z,38.60
2019-01-29T20:17:43.653Z,36.03
2019-01-29T20:20:15.670Z,37.57
2019-01-29T20:22:44.362Z,33.53
2019-01-29T20:25:32.220Z,29.07
2019-01-29T20:28:00.511Z,26.17
2019-01-29T20:30:31.304Z,27.13
2019-01-29T20:33:00.033Z,23.30
2019-01-29T20:35:28.664Z,21.87
2019-01-29T20:37:58.419Z,20.00
2019-01-29T20:40:27.106Z,20.17
2019-01-29T20:42:55.800Z,20.47
2019-01-29T20:45:24.945Z,19.80
2019-01-29T20:47:54.554Z,19.77
2019-01-29T20:50:25.898Z,18.93
2019-01-29T20:52:54.586Z,17.77
2019-01-29T20:55:23.336Z,17.27
2019-01-29T20:57:51.875Z,19.30
2019-01-29T21:00:23.241Z,19.23
2019-01-29T21:02:51.868Z,18.83
2019-01-29T21:05:20.531Z,17.90
2019-01-29T21:07:49.267Z,17.17
2019-01-29T21:10:19.187Z,16.80
2019-01-29T21:12:47.922Z,15.83
2019-01-29T21:15:17.615Z,14.27
2019-01-29T21:17:45.947Z,13.80
2019-01-29T21:20:16.609Z,12.43
2019-01-29T21:22:45.269Z,12.77
2019-01-29T21:25:14.425Z,12.67
2019-01-29T21:27:43.077Z,10.87
2019-01-29T21:30:18.120Z,12.57
2019-01-29T21:32:46.629Z,12.27
2019-01-29T21:35:15.395Z,12.30
2019-01-29T21:37:44.001Z,12.53
2019-01-29T21:40:12.432Z,12.93
2019-01-29T21:42:40.928Z,13.17
2019-01-29T21:45:10.786Z,12.97
2019-01-29T21:47:39.278Z,13.10
2019-01-29T21:50:12.352Z,12.90
2019-01-29T21:52:40.752Z,12.97
2019-01-29T21:55:09.869Z,12.23
2019-01-29T21:57:38.615Z,12.23
2019-01-29T22:00:11.746Z,12.83
2019-01-29T22:02:40.342Z,12.80
2019-01-29T22:05:09.877Z,12.37
2019-01-29T22:07:38.348Z,13.00
2019-01-29T22:10:08.040Z,12.77
2019-01-29T22:12:36.618Z,12.87
2019-01-29T22:15:07.580Z,13.30
2019-01-29T22:17:36.205Z,15.27
2019-01-29T22:20:06.271Z,14.10
2019-01-29T22:22:34.791Z,14.20
2019-01-29T22:25:04.194Z,15.20
2019-01-29T22:27:32.634Z,13.60
2019-01-29T22:30:01.226Z,14.40
2019-01-29T22:32:29.867Z,14.80
2019-01-29T22:34:58.396Z,15.63
2019-01-29T22:37:26.776Z,14.90
2019-01-29T22:39:56.275Z,15.87
2019-01-29T22:42:24.873Z,16.67
2019-01-29T22:44:53.516Z,14.53
2019-01-29T22:47:21.887Z,13.77
2019-01-29T22:49:50.544Z,13.83
2019-01-29T22:52:18.885Z,12.40
2019-01-29T22:54:47.360Z,12.37
2019-01-29T22:57:15.949Z,11.27
2019-01-29T22:59:44.495Z,10.53
2019-01-29T23:02:13.123Z,10.50
2019-01-29T23:04:44.805Z,10.43
2019-01-29T23:07:34.367Z,10.00
2019-01-29T23:10:04.351Z,8.87
2019-01-29T23:12:32.902Z,9.53
2019-01-29T23:15:02.656Z,10.23
2019-01-29T23:17:31.052Z,10.23
2019-01-29T23:19:59.511Z,11.07
2019-01-29T23:22:27.977Z,9.93
2019-01-29T23:24:56.518Z,10.33
2019-01-29T23:27:25.266Z,10.77
2019-01-29T23:29:53.823Z,11.07
2019-01-29T23:32:22.666Z,10.67
2019-01-29T23:34:50.943Z,9.93
2019-01-29T23:37:19.308Z,9.47
2019-01-29T23:39:47.811Z,9.20
2019-01-29T23:42:16.159Z,9.13
2019-01-29T23:44:44.588Z,9.03
2019-01-29T23:47:13.215Z,8.70
2019-01-29T23:49:41.918Z,8.53
2019-01-29T23:52:10.468Z,8.70
2019-01-29T23:54:38.984Z,8.60
2019-01-29T23:57:07.683Z,9.23
2019-01-29T23:59:35.988Z,10.17
